createdAt,value
2022-09-10T00:02:14.019Z,0.30
2022-09-10T00:04:41.210Z,0.20
2022-09-10T00:07:08.262Z,0.20
2022-09-10T00:09:35.426Z,0.28
2022-09-10T00:12:02.970Z,0.40
2022-09-10T00:14:30.037Z,0.20
2022-09-10T00:16:57.710Z,0.30
2022-09-10T00:19:25.029Z,0.22
2022-09-10T00:21:52.116Z,0.30
2022-09-10T00:24:19.162Z,0.20
2022-09-10T00:26:46.653Z,0.40
2022-09-10T00:29:17.107Z,0.20
2022-09-10T00:31:45.167Z,0.30
2022-09-10T00:34:13.241Z,0.20
2022-09-10T00:36:43.224Z,0.20
2022-09-10T00:39:20.559Z,0.30
2022-09-10T00:41:49.227Z,0.30
2022-09-10T00:44:55.993Z,0.22
2022-09-10T00:47:37.815Z,0.30
2022-09-10T00:50:15.219Z,0.30
2022-09-10T00:52:43.273Z,0.40
2022-09-10T00:55:12.653Z,0.25
2022-09-10T00:57:40.217Z,0.30
2022-09-10T01:00:12.048Z,0.30
2022-09-10T01:02:39.969Z,0.17
2022-09-10T01:05:09.336Z,0.25
2022-09-10T01:07:37.021Z,0.20
2022-09-10T01:10:10.841Z,0.20
2022-09-10T01:13:02.242Z,0.20
2022-09-10T01:15:55.380Z,0.20
2022-09-10T01:18:56.582Z,0.30
2022-09-10T01:22:03.384Z,0.20
2022-09-10T01:24:55.927Z,0.20
2022-09-10T01:27:42.792Z,0.30
2022-09-10T01:30:21.119Z,0.30
2022-09-10T01:33:03.182Z,0.38
2022-09-10T01:35:46.853Z,0.20
2022-09-10T01:38:20.131Z,0.32
2022-09-10T01:40:48.038Z,0.30
2022-09-10T01:43:15.194Z,0.20
2022-09-10T01:46:15.021Z,0.20
2022-09-10T01:49:22.290Z,0.30
2022-09-10T01:52:15.316Z,0.30
2022-09-10T01:55:22.305Z,0.22
2022-09-10T01:58:26.647Z,0.38
2022-09-10T02:01:15.707Z,0.20
2022-09-10T02:03:48.006Z,0.20
2022-09-10T02:06:19.564Z,0.20
2022-09-10T02:08:49.705Z,0.20
2022-09-10T02:13:43.794Z,0.32
2022-09-10T02:16:15.418Z,0.20
2022-09-10T02:18:42.887Z,0.63
2022-09-10T02:21:11.757Z,0.22
2022-09-10T02:23:45.437Z,0.28
2022-09-10T02:26:14.594Z,0.28
2022-09-10T02:28:49.726Z,0.30
2022-09-10T02:31:18.774Z,0.20
2022-09-10T02:33:46.087Z,0.40
2022-09-10T02:36:13.286Z,0.20
2022-09-10T02:38:40.609Z,0.30
2022-09-10T02:41:09.585Z,0.20
2022-09-10T02:46:09.004Z,0.22
2022-09-10T02:48:36.147Z,0.20
2022-09-10T02:51:03.333Z,0.10
2022-09-10T02:53:31.786Z,0.10
2022-09-10T02:55:59.144Z,0.10
2022-09-10T02:58:26.191Z,0.30
2022-09-10T03:00:53.738Z,0.28
2022-09-10T03:03:20.804Z,0.20
2022-09-10T03:05:47.860Z,0.20
2022-09-10T03:08:14.968Z,0.22
2022-09-10T03:10:42.057Z,0.20
2022-09-10T03:13:09.152Z,0.20
2022-09-10T03:15:36.222Z,0.10
2022-09-10T03:18:03.252Z,0.10
2022-09-10T03:20:31.366Z,0.30
2022-09-10T03:22:58.446Z,0.20
2022-09-10T03:25:25.530Z,0.20
2022-09-10T03:27:52.969Z,0.28
2022-09-10T03:30:20.503Z,0.10
2022-09-10T03:32:48.021Z,0.30
2022-09-10T03:35:17.022Z,0.35
2022-09-10T03:37:44.488Z,0.10
2022-09-10T03:40:11.742Z,0.15
2022-09-10T03:42:39.078Z,0.25
2022-09-10T03:45:06.801Z,0.30
2022-09-10T03:47:33.850Z,0.20
2022-09-10T03:50:00.898Z,0.28
2022-09-10T03:52:28.747Z,0.13
2022-09-10T03:54:55.933Z,0.30
2022-09-10T03:57:23.464Z,0.17
2022-09-10T03:59:50.522Z,0.22
2022-09-10T04:02:18.645Z,0.38
2022-09-10T04:04:45.675Z,0.40
2022-09-10T04:07:12.767Z,0.30
2022-09-10T04:09:39.864Z,0.13
2022-09-10T04:12:07.281Z,0.22
2022-09-10T04:14:34.616Z,0.40
2022-09-10T04:17:01.709Z,0.40
2022-09-10T04:19:29.128Z,0.10
2022-09-10T04:21:57.421Z,0.32
2022-09-10T04:24:24.463Z,0.20
2022-09-10T04:26:52.393Z,0.10
2022-09-10T04:29:19.527Z,0.30
2022-09-10T04:31:46.964Z,0.30
2022-09-10T04:34:14.108Z,0.20
2022-09-10T04:36:41.147Z,0.20
2022-09-10T04:39:08.404Z,0.30
2022-09-10T04:41:35.577Z,0.25
2022-09-10T04:44:02.995Z,0.20
2022-09-10T04:46:30.027Z,0.30
2022-09-10T04:48:57.813Z,0.20
2022-09-10T04:51:25.209Z,0.20
2022-09-10T04:53:52.665Z,0.28
2022-09-10T04:56:21.047Z,0.30
2022-09-10T04:58:48.701Z,0.30
2022-09-10T05:01:15.947Z,0.20
2022-09-10T05:03:43.023Z,0.25
2022-09-10T05:06:10.192Z,0.10
2022-09-10T05:08:37.651Z,0.20
2022-09-10T05:11:05.330Z,0.20
2022-09-10T05:13:32.589Z,0.40
2022-09-10T05:16:00.213Z,0.30
2022-09-10T05:18:27.608Z,0.15
2022-09-10T05:20:54.866Z,0.35
2022-09-10T05:23:22.073Z,0.20
2022-09-10T05:25:49.232Z,0.28
2022-09-10T05:28:20.996Z,0.38
2022-09-10T05:30:51.558Z,0.35
2022-09-10T05:33:19.054Z,0.20
2022-09-10T05:35:51.836Z,0.32
2022-09-10T05:38:19.428Z,0.30
2022-09-10T05:40:47.178Z,0.40
2022-09-10T05:43:14.171Z,0.20
2022-09-10T05:45:42.028Z,0.43
2022-09-10T05:48:09.184Z,0.30
2022-09-10T05:50:36.268Z,0.40
2022-09-10T05:53:03.321Z,0.40
2022-09-10T05:55:31.420Z,0.50
2022-09-10T05:57:58.720Z,0.40
2022-09-10T06:00:26.377Z,0.30
2022-09-10T06:02:53.597Z,0.47
2022-09-10T06:05:24.110Z,0.40
2022-09-10T06:07:51.620Z,0.28
2022-09-10T06:10:20.175Z,0.40
2022-09-10T06:12:48.416Z,0.47
2022-09-10T06:15:16.417Z,0.43
2022-09-10T06:17:43.450Z,0.30
2022-09-10T06:20:14.211Z,0.50
2022-09-10T06:22:41.335Z,0.55
2022-09-10T06:25:08.975Z,0.30
2022-09-10T06:27:36.037Z,0.60
2022-09-10T06:30:03.171Z,0.50
2022-09-10T06:32:31.608Z,0.50
2022-09-10T06:34:58.665Z,0.40
2022-09-10T06:37:27.115Z,0.38
2022-09-10T06:39:54.244Z,0.60
2022-09-10T06:42:21.310Z,0.50
2022-09-10T06:44:48.605Z,0.73
2022-09-10T06:48:06.800Z,0.45
2022-09-10T06:50:02.659Z,0.45
2022-09-10T06:52:29.961Z,0.70
2022-09-10T06:54:57.003Z,0.63
2022-09-10T06:57:27.186Z,0.50
2022-09-10T06:59:54.214Z,0.50
2022-09-10T07:02:21.269Z,0.70
2022-09-10T07:04:48.351Z,0.57
2022-09-10T07:07:15.461Z,0.90
2022-09-10T07:09:43.391Z,0.50
2022-09-10T07:12:10.414Z,0.77
2022-09-10T07:14:37.487Z,0.60
2022-09-10T07:17:04.546Z,0.50
2022-09-10T07:19:33.073Z,0.65
2022-09-10T07:22:00.101Z,0.70
2022-09-10T07:24:27.339Z,0.55
2022-09-10T07:26:54.396Z,0.63
2022-09-10T07:29:21.657Z,0.70
2022-09-10T07:31:48.761Z,0.52
2022-09-10T07:34:15.916Z,0.47
2022-09-10T07:36:42.970Z,1.00
2022-09-10T07:39:11.325Z,0.50
2022-09-10T07:41:38.439Z,0.43
2022-09-10T07:44:05.678Z,0.70
2022-09-10T07:46:32.735Z,0.50
2022-09-10T07:49:01.038Z,0.68
2022-09-10T07:51:30.810Z,0.80
2022-09-10T07:53:59.532Z,0.70
2022-09-10T07:56:27.168Z,0.50
2022-09-10T07:58:54.977Z,0.52
2022-09-10T08:01:22.522Z,0.50
2022-09-10T08:03:49.937Z,0.50
2022-09-10T08:06:17.598Z,0.55
2022-09-10T08:08:44.633Z,0.40
2022-09-10T08:11:17.583Z,0.50
2022-09-10T08:13:46.797Z,0.40
2022-09-10T08:16:19.166Z,0.50
2022-09-10T08:18:51.517Z,0.47
2022-09-10T08:21:19.513Z,0.52
2022-09-10T08:23:51.308Z,0.55
2022-09-10T08:26:18.801Z,0.50
2022-09-10T08:28:47.502Z,0.50
2022-09-10T08:31:14.732Z,0.43
2022-09-10T08:33:41.890Z,0.50
2022-09-10T08:36:12.139Z,0.82
2022-09-10T08:38:40.787Z,1.00
2022-09-10T08:41:34.096Z,0.63
2022-09-10T08:44:13.608Z,0.57
2022-09-10T08:46:56.839Z,0.60
2022-09-10T08:49:40.860Z,0.70
2022-09-10T08:52:29.963Z,0.30
2022-09-10T08:55:24.217Z,0.40
2022-09-10T08:57:57.989Z,0.50
2022-09-10T09:00:28.941Z,0.35
2022-09-10T09:03:10.287Z,0.30
2022-09-10T09:05:49.677Z,0.43
2022-09-10T09:08:21.952Z,0.35
2022-09-10T09:10:52.796Z,0.50
2022-09-10T09:13:55.903Z,0.70
2022-09-10T09:16:43.798Z,0.35
2022-09-10T09:19:35.026Z,0.47
2022-09-10T09:22:15.973Z,0.40
2022-09-10T09:25:07.300Z,0.38
2022-09-10T09:27:38.042Z,0.35
2022-09-10T09:32:41.600Z,0.20
2022-09-10T09:35:32.618Z,0.40
2022-09-10T09:38:25.227Z,0.65
2022-09-10T09:40:58.992Z,0.35
2022-09-10T09:44:02.687Z,0.40
2022-09-10T09:46:29.813Z,0.30
2022-09-10T09:48:59.220Z,0.30
2022-09-10T09:51:30.734Z,0.40
2022-09-10T09:54:39.414Z,0.40
2022-09-10T09:56:52.414Z,0.30
2022-09-10T09:59:31.334Z,0.40
2022-09-10T10:02:16.445Z,0.20
2022-09-10T10:04:55.474Z,0.20
2022-09-10T10:07:31.797Z,0.38
2022-09-10T10:10:01.266Z,0.63
2022-09-10T10:12:33.302Z,0.50
2022-09-10T10:15:02.813Z,0.60
2022-09-10T10:17:35.714Z,0.30
2022-09-10T10:20:10.273Z,0.30
2022-09-10T10:22:39.349Z,0.40
2022-09-10T10:25:38.498Z,0.30
2022-09-10T10:28:24.176Z,0.30
2022-09-10T10:30:53.773Z,0.30
2022-09-10T10:33:31.611Z,0.80
2022-09-10T10:36:18.989Z,0.40
2022-09-10T10:39:04.381Z,0.43
2022-09-10T10:41:58.824Z,0.40
2022-09-10T10:44:50.273Z,0.32
2022-09-10T10:47:41.053Z,0.20
2022-09-10T10:50:52.201Z,0.20
2022-09-10T10:53:39.040Z,0.43
2022-09-10T10:56:42.909Z,0.35
2022-09-10T10:59:45.403Z,0.40
2022-09-10T11:02:22.826Z,0.40
2022-09-10T11:04:52.092Z,0.43
2022-09-10T11:07:31.806Z,0.30
2022-09-10T11:10:15.340Z,0.20
2022-09-10T11:12:50.814Z,0.30
2022-09-10T11:15:40.265Z,0.30
2022-09-10T11:18:33.560Z,0.30
2022-09-10T11:21:22.159Z,0.13
2022-09-10T11:24:17.324Z,0.30
2022-09-10T11:27:00.859Z,0.40
2022-09-10T11:29:52.639Z,0.30
2022-09-10T11:32:40.365Z,0.40
2022-09-10T11:35:28.483Z,0.30
2022-09-10T11:38:20.712Z,0.30
2022-09-10T11:41:24.870Z,0.40
2022-09-10T11:44:36.247Z,0.30
2022-09-10T11:47:23.811Z,0.20
2022-09-10T11:50:07.196Z,0.20
2022-09-10T11:52:35.217Z,0.50
2022-09-10T11:55:04.693Z,0.28
2022-09-10T11:58:11.768Z,0.30
2022-09-10T12:00:57.353Z,0.40
2022-09-10T12:03:53.870Z,0.43
2022-09-10T12:06:33.544Z,0.50
2022-09-10T12:09:13.427Z,0.30
2022-09-10T12:12:14.120Z,0.27
2022-09-10T12:14:41.680Z,0.13
2022-09-10T12:17:33.901Z,0.30
2022-09-10T12:20:02.917Z,0.30
2022-09-10T12:22:37.430Z,0.45
2022-09-10T12:25:08.809Z,0.47
2022-09-10T12:27:49.187Z,0.30
2022-09-10T12:30:56.024Z,0.10
2022-09-10T12:34:02.835Z,0.20
2022-09-10T12:37:10.840Z,0.20
2022-09-10T12:39:38.154Z,0.25
2022-09-10T12:42:30.598Z,0.20
2022-09-10T12:44:57.799Z,0.47
2022-09-10T12:47:45.093Z,0.28
2022-09-10T12:50:33.716Z,0.17
2022-09-10T12:53:17.618Z,0.25
2022-09-10T12:55:59.706Z,0.13
2022-09-10T12:59:00.635Z,0.17
2022-09-10T13:01:46.443Z,0.20
2022-09-10T13:04:30.683Z,0.10
2022-09-10T13:07:05.833Z,0.20
2022-09-10T13:09:40.016Z,0.30
2022-09-10T13:12:24.143Z,0.30
2022-09-10T13:14:54.644Z,0.10
2022-09-10T13:17:40.998Z,0.20
2022-09-10T13:20:29.679Z,0.20
2022-09-10T13:23:21.805Z,0.10
2022-09-10T13:25:52.703Z,0.40
2022-09-10T13:29:00.838Z,0.20
2022-09-10T13:31:38.821Z,0.30
2022-09-10T13:34:41.014Z,0.22
2022-09-10T13:37:47.825Z,0.20
2022-09-10T13:40:49.023Z,0.10
2022-09-10T13:43:51.639Z,0.15
2022-09-10T13:46:31.294Z,0.20
2022-09-10T13:49:13.109Z,0.10
2022-09-10T13:51:57.082Z,0.20
2022-09-10T13:54:33.302Z,0.20
2022-09-10T13:57:22.560Z,0.20
2022-09-10T13:59:52.378Z,0.10
2022-09-10T14:02:21.547Z,0.20
2022-09-10T14:04:49.039Z,0.20
2022-09-10T14:07:21.905Z,0.10
2022-09-10T14:09:58.529Z,0.13
2022-09-10T14:12:29.588Z,0.30
2022-09-10T14:15:00.420Z,0.10
2022-09-10T14:17:34.317Z,0.10
2022-09-10T14:20:15.347Z,0.20
2022-09-10T14:22:42.506Z,0.28
2022-09-10T14:25:31.830Z,0.20
2022-09-10T14:28:20.851Z,0.30
2022-09-10T14:30:49.455Z,0.10
2022-09-10T14:33:33.025Z,0.28
2022-09-10T14:36:19.300Z,0.10
2022-09-10T14:39:13.482Z,0.52
2022-09-10T14:41:40.881Z,0.40
2022-09-10T14:44:29.868Z,0.20
2022-09-10T14:47:21.516Z,0.10
2022-09-10T14:49:49.064Z,0.20
2022-09-10T14:52:16.196Z,0.35
2022-09-10T14:54:43.266Z,0.30
2022-09-10T14:57:15.624Z,0.10
2022-09-10T14:59:45.267Z,0.10
2022-09-10T15:02:17.483Z,0.20
2022-09-10T15:04:45.294Z,0.13
2022-09-10T15:07:13.788Z,0.32
2022-09-10T15:09:41.326Z,0.20
2022-09-10T15:12:28.026Z,0.13
2022-09-10T15:14:55.450Z,0.13
2022-09-10T15:17:22.475Z,0.10
2022-09-10T15:19:50.080Z,0.17
2022-09-10T15:22:24.976Z,0.40
2022-09-10T15:25:09.241Z,0.20
2022-09-10T15:27:37.169Z,0.20
2022-09-10T15:30:05.465Z,0.20
2022-09-10T15:32:32.591Z,0.30
2022-09-10T15:34:59.941Z,0.25
2022-09-10T15:37:27.252Z,0.17
2022-09-10T15:39:54.810Z,0.10
2022-09-10T15:42:22.083Z,0.20
2022-09-10T15:44:49.159Z,0.20
2022-09-10T15:47:16.204Z,0.20
2022-09-10T15:49:43.264Z,0.25
2022-09-10T15:52:10.370Z,0.30
2022-09-10T15:54:37.454Z,0.13
2022-09-10T15:57:04.524Z,0.17
2022-09-10T15:59:31.566Z,0.10
2022-09-10T16:01:58.636Z,0.30
2022-09-10T16:04:26.173Z,0.10
2022-09-10T16:06:53.227Z,0.20
2022-09-10T16:09:20.652Z,0.30
2022-09-10T16:11:48.337Z,0.20
2022-09-10T16:14:18.795Z,0.30
2022-09-10T16:19:14.516Z,0.13
2022-09-10T16:21:41.683Z,0.10
2022-09-10T16:24:10.129Z,0.20
2022-09-10T16:26:39.932Z,0.30
2022-09-10T16:29:16.289Z,0.10
2022-09-10T16:31:46.131Z,0.10
2022-09-10T16:34:17.653Z,0.15
2022-09-10T16:36:45.852Z,0.17
2022-09-10T16:39:15.572Z,0.20
2022-09-10T16:41:45.032Z,0.10
2022-09-10T16:44:14.849Z,0.10
2022-09-10T16:46:42.563Z,0.20
2022-09-10T16:49:14.507Z,0.10
2022-09-10T16:51:43.106Z,0.10
2022-09-10T16:54:10.992Z,0.30
2022-09-10T16:56:40.242Z,0.10
2022-09-10T16:59:10.077Z,0.20
2022-09-10T17:01:37.952Z,0.10
2022-09-10T17:04:07.653Z,0.10
2022-09-10T17:06:35.958Z,0.20
2022-09-10T17:09:03.480Z,0.10
2022-09-10T17:11:32.233Z,0.25
2022-09-10T17:14:01.563Z,0.40
2022-09-10T17:16:34.316Z,0.20
2022-09-10T17:19:09.943Z,0.20
2022-09-10T17:21:39.328Z,0.43
2022-09-10T17:24:08.992Z,0.10
2022-09-10T17:26:40.271Z,0.20
2022-09-10T17:29:10.046Z,0.20
2022-09-10T17:31:37.250Z,0.10
2022-09-10T17:34:04.895Z,0.00
2022-09-10T17:36:33.389Z,0.10
2022-09-10T17:39:03.475Z,0.20
2022-09-10T17:41:31.114Z,0.10
2022-09-10T17:44:01.562Z,0.10
2022-09-10T17:46:31.315Z,0.00
2022-09-10T17:49:02.581Z,0.30
2022-09-10T17:51:31.441Z,0.10
2022-09-10T17:53:59.242Z,0.20
2022-09-10T17:56:27.494Z,0.10
2022-09-10T17:58:59.918Z,0.38
2022-09-10T18:01:29.828Z,0.10
2022-09-10T18:03:57.071Z,0.10
2022-09-10T18:06:25.359Z,0.10
2022-09-10T18:08:53.131Z,0.20
2022-09-10T18:11:23.248Z,0.10
2022-09-10T18:13:52.259Z,0.10
2022-09-10T18:16:22.169Z,0.10
2022-09-10T18:18:55.595Z,0.17
2022-09-10T18:21:31.921Z,0.00
2022-09-10T18:24:01.410Z,0.15
2022-09-10T18:26:31.144Z,0.20
2022-09-10T18:29:02.061Z,0.03
2022-09-10T18:31:35.154Z,0.00
2022-09-10T18:34:02.948Z,0.10
2022-09-10T18:36:31.621Z,0.13
2022-09-10T18:39:02.211Z,0.10
2022-09-10T18:41:34.876Z,0.13
2022-09-10T18:44:04.162Z,0.15
2022-09-10T18:46:33.382Z,0.13
2022-09-10T18:49:01.178Z,0.30
2022-09-10T18:51:30.320Z,0.10
2022-09-10T18:54:00.155Z,0.10
2022-09-10T18:56:30.652Z,0.10
2022-09-10T18:59:01.012Z,0.10
2022-09-10T19:01:30.039Z,0.10
2022-09-10T19:04:01.293Z,0.13
2022-09-10T19:06:31.306Z,0.10
2022-09-10T19:09:01.425Z,0.20
2022-09-10T19:11:35.384Z,0.10
2022-09-10T19:14:04.969Z,0.10
2022-09-10T19:16:35.129Z,0.17
2022-09-10T19:21:33.023Z,0.25
2022-09-10T19:24:03.877Z,0.10
2022-09-10T19:26:34.563Z,0.20
2022-09-10T19:29:02.493Z,0.25
2022-09-10T19:31:31.834Z,0.03
2022-09-10T19:34:01.691Z,0.10
2022-09-10T19:36:31.780Z,0.08
2022-09-10T19:38:59.781Z,0.10
2022-09-10T19:41:27.182Z,0.10
2022-09-10T19:43:55.660Z,0.20
2022-09-10T19:46:31.189Z,0.10
2022-09-10T19:48:59.920Z,0.20
2022-09-10T19:51:32.115Z,0.13
2022-09-10T19:54:00.660Z,0.15
2022-09-10T19:56:32.342Z,0.20
2022-09-10T19:59:02.648Z,0.35
2022-09-10T20:01:32.450Z,0.08
2022-09-10T20:04:05.546Z,0.10
2022-09-10T20:06:33.988Z,0.10
2022-09-10T20:09:02.514Z,0.10
2022-09-10T20:11:32.625Z,0.17
2022-09-10T20:14:02.736Z,0.28
2022-09-10T20:16:30.270Z,0.05
2022-09-10T20:18:57.897Z,0.10
2022-09-10T20:21:28.082Z,0.10
2022-09-10T20:26:28.946Z,0.10
2022-09-10T20:29:02.237Z,0.30
2022-09-10T20:31:31.558Z,0.13
2022-09-10T20:34:00.965Z,0.10
2022-09-10T20:36:28.704Z,0.20
2022-09-10T20:38:56.666Z,0.10
2022-09-10T20:41:24.665Z,0.20
2022-09-10T20:43:52.989Z,0.13
2022-09-10T20:46:25.158Z,0.20
2022-09-10T20:48:52.845Z,0.20
2022-09-10T20:51:20.730Z,0.20
2022-09-10T20:53:48.336Z,0.40
2022-09-10T20:56:19.290Z,0.10
2022-09-10T20:58:47.548Z,0.20
2022-09-10T21:01:19.941Z,0.22
2022-09-10T21:03:49.369Z,0.20
2022-09-10T21:06:19.740Z,0.10
2022-09-10T21:08:48.261Z,0.10
2022-09-10T21:11:17.724Z,0.25
2022-09-10T21:13:47.393Z,0.20
2022-09-10T21:16:25.886Z,0.10
2022-09-10T21:18:55.254Z,0.20
2022-09-10T21:21:25.809Z,0.20
2022-09-10T21:23:58.868Z,0.22
2022-09-10T21:26:28.562Z,0.15
2022-09-10T21:29:00.379Z,0.20
2022-09-10T21:31:28.776Z,0.25
2022-09-10T21:34:01.941Z,0.10
2022-09-10T21:36:29.966Z,0.10
2022-09-10T21:38:59.674Z,0.20
2022-09-10T21:41:35.634Z,0.10
2022-09-10T21:44:05.123Z,0.20
2022-09-10T21:46:32.587Z,0.10
2022-09-10T21:48:59.998Z,0.25
2022-09-10T21:51:27.275Z,0.28
2022-09-10T21:53:55.905Z,0.35
2022-09-10T21:56:24.996Z,0.20
2022-09-10T21:58:53.806Z,0.20
2022-09-10T22:01:24.458Z,0.15
2022-09-10T22:03:55.208Z,0.35
2022-09-10T22:06:25.180Z,0.20
2022-09-10T22:08:55.290Z,0.20
2022-09-10T22:11:24.774Z,0.55
2022-09-10T22:13:54.445Z,0.38
2022-09-10T22:16:23.016Z,0.10
2022-09-10T22:18:51.046Z,0.20
2022-09-10T22:21:18.496Z,0.10
2022-09-10T22:23:45.561Z,0.20
2022-09-10T22:26:15.466Z,0.20
2022-09-10T22:28:43.668Z,0.10
2022-09-10T22:31:15.401Z,0.10
2022-09-10T22:33:45.138Z,0.10
2022-09-10T22:36:21.559Z,0.45
2022-09-10T22:38:51.125Z,0.10
2022-09-10T22:41:19.146Z,0.20
2022-09-10T22:43:46.484Z,0.28
2022-09-10T22:46:13.922Z,0.10
2022-09-10T22:48:42.729Z,0.20
2022-09-10T22:51:15.250Z,0.22
2022-09-10T22:53:43.480Z,0.10
2022-09-10T22:56:12.142Z,0.10
2022-09-10T22:58:39.913Z,0.30
2022-09-10T23:01:10.044Z,0.17
2022-09-10T23:03:38.019Z,0.10
2022-09-10T23:06:11.987Z,0.10
2022-09-10T23:08:44.271Z,0.20
2022-09-10T23:11:15.371Z,0.17
2022-09-10T23:13:44.801Z,0.20
2022-09-10T23:16:18.879Z,0.10
2022-09-10T23:18:54.954Z,0.20
2022-09-10T23:21:26.957Z,0.13
2022-09-10T23:23:56.551Z,0.10
2022-09-10T23:26:24.406Z,0.20
2022-09-10T23:28:52.073Z,0.10
2022-09-10T23:31:21.992Z,0.10
2022-09-10T23:34:05.055Z,0.10
2022-09-10T23:36:34.827Z,0.10
2022-09-10T23:39:04.588Z,0.10
2022-09-10T23:41:31.664Z,0.10
2022-09-10T23:43:59.218Z,0.35
2022-09-10T23:46:27.053Z,0.00
2022-09-10T23:48:55.168Z,0.20
2022-09-10T23:51:22.739Z,0.95
2022-09-10T23:53:50.372Z,0.10
2022-09-10T23:56:19.796Z,0.13
2022-09-10T23:58:47.767Z,0.38
